Time;durP1;ratioP1;P1;durP2;ratioP2;P2;SDS_P1;SDS_P2;PMS_P1;PMS_P2;Temp;Humidity;BMP_temperature;BMP_pressure;BME280_temperature;BME280_humidity;BME280_pressure;Samples;Min_cycle;Max_cycle;Signal;HPM_P1;HPM_P2
2023/11/11 00:01:32;;;;;;;22.38;21.17;;;;;;;;;;5063350;28;20063;-65
2023/11/11 00:03:58;;;;;;;22.58;21.38;;;;;;;;;;5066348;28;20028;-66
2023/11/11 00:06:24;;;;;;;22.67;21.40;;;;;;;;;;5064853;28;20530;-69
2023/11/11 00:08:49;;;;;;;22.50;21.30;;;;;;;;;;5063521;28;20036;-72
2023/11/11 00:11:15;;;;;;;21.67;20.48;;;;;;;;;;5063366;28;20028;-67
2023/11/11 00:13:40;;;;;;;21.63;20.42;;;;;;;;;;5064598;28;20751;-66
2023/11/11 00:16:06;;;;;;;23.60;22.27;;;;;;;;;;5064281;28;20035;-65
2023/11/11 00:18:31;;;;;;;22.65;21.45;;;;;;;;;;5066094;28;20050;-66
2023/11/11 00:20:57;;;;;;;22.08;20.88;;;;;;;;;;5063545;28;20060;-69
2023/11/11 00:23:23;;;;;;;22.17;20.98;;;;;;;;;;5067454;28;20063;-69
2023/11/11 00:25:48;;;;;;;22.08;20.88;;;;;;;;;;5063859;28;20065;-69
2023/11/11 00:28:16;;;;;;;21.73;20.52;;;;;;;;;;5064484;28;20028;-69
2023/11/11 00:30:45;;;;;;;22.08;20.88;;;;;;;;;;5062232;28;20040;-69
2023/11/11 00:33:11;;;;;;;22.13;20.77;;;;;;;;;;5059717;28;20105;-65
2023/11/11 00:35:37;;;;;;;24.05;22.65;;;;;;;;;;5061187;28;20067;-69
2023/11/11 00:38:04;;;;;;;21.70;20.50;;;;;;;;;;5063898;28;20665;-69
2023/11/11 00:40:29;;;;;;;22.20;21.00;;;;;;;;;;5059587;28;20469;-66
2023/11/11 00:42:55;;;;;;;22.88;21.67;;;;;;;;;;5064592;28;20068;-66
2023/11/11 00:45:22;;;;;;;23.77;22.50;;;;;;;;;;5060789;28;20135;-66
2023/11/11 00:47:48;;;;;;;23.02;21.80;;;;;;;;;;5058902;28;20017;-66
2023/11/11 00:50:13;;;;;;;24.58;23.27;;;;;;;;;;5060146;28;20546;-70
2023/11/11 00:52:39;;;;;;;23.70;22.15;;;;;;;;;;5061128;28;20072;-69
2023/11/11 00:55:07;;;;;;;23.15;21.95;;;;;;;;;;5061949;28;20049;-69
2023/11/11 00:57:33;;;;;;;22.33;21.13;;;;;;;;;;5067508;28;20034;-70
2023/11/11 00:59:58;;;;;;;22.83;21.63;;;;;;;;;;5064617;28;20407;-70
2023/11/11 01:02:24;;;;;;;23.92;22.20;;;;;;;;;;5063627;28;20878;-66
2023/11/11 01:04:49;;;;;;;22.98;21.77;;;;;;;;;;5059815;28;20040;-67
2023/11/11 01:07:15;;;;;;;23.92;22.63;;;;;;;;;;5062560;28;20051;-65
2023/11/11 01:09:41;;;;;;;21.88;20.67;;;;;;;;;;5061088;28;20652;-67
2023/11/11 01:12:07;;;;;;;23.35;22.13;;;;;;;;;;5063799;28;20087;-69
2023/11/11 01:14:34;;;;;;;24.25;22.85;;;;;;;;;;5060706;28;20474;-70
2023/11/11 01:17:02;;;;;;;22.90;21.63;;;;;;;;;;5066102;28;20198;-70
2023/11/11 01:19:28;;;;;;;22.27;21.08;;;;;;;;;;5059322;28;20032;-66
2023/11/11 01:21:54;;;;;;;21.73;20.52;;;;;;;;;;5062788;28;20978;-66
2023/11/11 01:24:19;;;;;;;21.98;20.80;;;;;;;;;;5064449;28;20032;-67
2023/11/11 01:26:45;;;;;;;21.23;20.10;;;;;;;;;;5066337;28;20613;-67
2023/11/11 01:29:11;;;;;;;22.45;21.25;;;;;;;;;;5063961;28;20036;-69
2023/11/11 01:31:36;;;;;;;23.10;21.88;;;;;;;;;;5061997;28;20371;-69
2023/11/11 01:34:01;;;;;;;22.48;21.27;;;;;;;;;;5063442;28;20052;-70
2023/11/11 01:36:28;;;;;;;23.80;22.50;;;;;;;;;;5058149;28;20021;-70
2023/11/11 01:38:54;;;;;;;24.45;23.15;;;;;;;;;;5045316;28;20115;-68
2023/11/11 01:41:19;;;;;;;21.83;20.63;;;;;;;;;;5061704;28;20131;-68
2023/11/11 01:43:45;;;;;;;25.30;23.83;;;;;;;;;;5063463;28;20717;-69
2023/11/11 01:46:11;;;;;;;22.15;20.95;;;;;;;;;;5059812;28;20029;-69
2023/11/11 01:48:37;;;;;;;22.80;21.55;;;;;;;;;;5063669;28;20112;-69
2023/11/11 01:51:03;;;;;;;22.60;21.40;;;;;;;;;;5061650;28;20041;-68
2023/11/11 01:53:29;;;;;;;22.15;20.95;;;;;;;;;;5066477;28;20036;-67
2023/11/11 01:55:56;;;;;;;22.23;21.02;;;;;;;;;;5063458;28;20316;-68
2023/11/11 01:58:21;;;;;;;20.85;19.75;;;;;;;;;;5062138;28;20424;-67
2023/11/11 02:00:47;;;;;;;19.80;18.70;;;;;;;;;;5061645;28;20044;-68
2023/11/11 02:03:13;;;;;;;20.83;19.73;;;;;;;;;;5064416;28;20125;-66
2023/11/11 02:05:39;;;;;;;21.10;20.00;;;;;;;;;;5062542;28;20620;-66
2023/11/11 02:08:06;;;;;;;20.30;19.20;;;;;;;;;;5061689;28;20690;-67
2023/11/11 02:10:34;;;;;;;22.40;21.10;;;;;;;;;;5059046;28;20106;-66
2023/11/11 02:12:59;;;;;;;19.35;18.27;;;;;;;;;;5061027;28;20067;-65
2023/11/11 02:15:26;;;;;;;18.10;17.10;;;;;;;;;;5062136;28;20061;-65
2023/11/11 02:17:58;;;;;;;19.30;18.27;;;;;;;;;;5062213;28;20028;-67
2023/11/11 02:20:24;;;;;;;20.35;19.25;;;;;;;;;;5058738;28;20056;-66
2023/11/11 02:22:49;;;;;;;19.27;18.23;;;;;;;;;;5059114;28;20067;-65
2023/11/11 02:25:14;;;;;;;18.90;17.90;;;;;;;;;;5061356;28;20042;-66
2023/11/11 02:27:42;;;;;;;19.15;18.15;;;;;;;;;;5058799;28;20072;-66
2023/11/11 02:30:11;;;;;;;19.15;18.15;;;;;;;;;;5059136;28;20526;-66
2023/11/11 02:32:37;;;;;;;20.02;18.92;;;;;;;;;;5059079;28;20618;-66
2023/11/11 02:35:03;;;;;;;19.23;18.20;;;;;;;;;;5057957;28;20129;-64
2023/11/11 02:37:28;;;;;;;18.80;17.80;;;;;;;;;;5061401;28;20028;-66
2023/11/11 02:39:54;;;;;;;19.08;18.08;;;;;;;;;;5061595;28;20128;-64
2023/11/11 02:42:19;;;;;;;18.83;17.83;;;;;;;;;;5060567;28;20048;-63
2023/11/11 02:44:45;;;;;;;19.48;18.38;;;;;;;;;;5057662;28;20045;-64
2023/11/11 02:47:10;;;;;;;17.90;16.90;;;;;;;;;;5061171;28;20032;-66
2023/11/11 02:49:35;;;;;;;18.73;17.73;;;;;;;;;;5065173;28;20028;-66
2023/11/11 02:52:01;;;;;;;19.27;18.17;;;;;;;;;;5062929;28;20075;-64
2023/11/11 02:54:26;;;;;;;19.60;18.50;;;;;;;;;;5060771;28;20488;-64
2023/11/11 02:56:51;;;;;;;18.20;17.20;;;;;;;;;;5065605;28;20370;-66
2023/11/11 02:59:17;;;;;;;19.65;18.55;;;;;;;;;;5065655;28;20025;-64
2023/11/11 03:01:42;;;;;;;18.92;17.92;;;;;;;;;;5061824;28;20104;-67
2023/11/11 03:04:08;;;;;;;20.17;19.08;;;;;;;;;;5063231;28;20037;-64
2023/11/11 03:06:40;;;;;;;18.90;17.88;;;;;;;;;;5059571;28;20032;-64
2023/11/11 03:09:06;;;;;;;20.08;18.98;;;;;;;;;;5065717;28;20047;-66
2023/11/11 03:11:31;;;;;;;19.38;18.33;;;;;;;;;;5063629;28;20135;-64
2023/11/11 03:13:57;;;;;;;21.15;20.05;;;;;;;;;;5064738;28;20037;-64
2023/11/11 03:16:22;;;;;;;19.85;18.75;;;;;;;;;;5063423;28;20420;-66
2023/11/11 03:18:48;;;;;;;20.35;19.25;;;;;;;;;;5063568;28;20040;-64
2023/11/11 03:21:20;;;;;;;19.88;18.77;;;;;;;;;;5063609;28;20048;-64
2023/11/11 03:23:45;;;;;;;20.33;19.23;;;;;;;;;;5069527;28;20037;-65
2023/11/11 03:26:11;;;;;;;19.95;18.85;;;;;;;;;;5069074;28;20119;-66
2023/11/11 03:28:36;;;;;;;20.27;19.17;;;;;;;;;;5064404;28;20497;-66
2023/11/11 03:31:02;;;;;;;19.33;18.30;;;;;;;;;;5064229;28;20063;-66
2023/11/11 03:33:28;;;;;;;19.67;18.60;;;;;;;;;;5062151;28;20032;-64
2023/11/11 03:35:53;;;;;;;20.02;18.63;;;;;;;;;;5064164;28;20032;-63
2023/11/11 03:38:18;;;;;;;20.15;19.05;;;;;;;;;;5063565;28;20430;-64
2023/11/11 03:40:44;;;;;;;19.08;18.08;;;;;;;;;;5065801;28;20413;-64
2023/11/11 03:43:09;;;;;;;21.55;20.38;;;;;;;;;;5061817;28;20043;-64
2023/11/11 03:45:34;;;;;;;19.13;18.13;;;;;;;;;;5060920;28;20025;-63
2023/11/11 03:48:00;;;;;;;20.05;18.95;;;;;;;;;;5065856;28;20376;-63
2023/11/11 03:50:25;;;;;;;19.05;18.02;;;;;;;;;;5061834;28;20067;-66
2023/11/11 03:52:50;;;;;;;20.52;19.42;;;;;;;;;;5064384;28;20029;-66
2023/11/11 03:55:16;;;;;;;18.50;17.50;;;;;;;;;;5060711;28;20025;-66
2023/11/11 03:57:41;;;;;;;20.00;18.90;;;;;;;;;;5061810;28;20407;-66
2023/11/11 04:00:11;;;;;;;18.70;17.67;;;;;;;;;;5059110;28;20432;-67
2023/11/11 04:02:36;;;;;;;19.60;18.52;;;;;;;;;;5063557;28;20025;-66
2023/11/11 04:05:02;;;;;;;19.70;18.60;;;;;;;;;;5062958;28;20239;-66
2023/11/11 04:07:27;;;;;;;20.98;19.75;;;;;;;;;;5062102;28;20301;-66
2023/11/11 04:09:53;;;;;;;18.98;17.98;;;;;;;;;;5063427;28;20131;-66
2023/11/11 04:12:18;;;;;;;18.02;17.02;;;;;;;;;;5061423;28;20154;-66
2023/11/11 04:14:44;;;;;;;19.88;18.77;;;;;;;;;;5060341;28;20045;-67
2023/11/11 04:17:09;;;;;;;18.65;17.65;;;;;;;;;;5060297;28;20112;-66
2023/11/11 04:19:34;;;;;;;17.88;16.88;;;;;;;;;;5061787;28;20040;-64
2023/11/11 04:22:00;;;;;;;18.45;17.45;;;;;;;;;;5059420;28;20032;-66
2023/11/11 04:24:26;;;;;;;19.02;18.00;;;;;;;;;;5069389;28;20037;-66
2023/11/11 04:26:51;;;;;;;18.50;17.50;;;;;;;;;;5063876;28;20389;-66
2023/11/11 04:29:16;;;;;;;17.70;16.70;;;;;;;;;;5062976;28;20032;-63
2023/11/11 04:31:42;;;;;;;18.02;17.02;;;;;;;;;;5060439;28;20033;-64
2023/11/11 04:34:08;;;;;;;17.35;16.38;;;;;;;;;;5062376;28;20082;-63
2023/11/11 04:36:35;;;;;;;18.17;17.17;;;;;;;;;;5060745;28;20912;-63
2023/11/11 04:39:01;;;;;;;18.20;17.20;;;;;;;;;;5062196;28;20032;-63
2023/11/11 04:41:26;;;;;;;18.27;17.27;;;;;;;;;;5062184;28;20028;-63
2023/11/11 04:43:52;;;;;;;18.23;17.23;;;;;;;;;;5061801;28;20056;-63
2023/11/11 04:46:17;;;;;;;18.52;17.52;;;;;;;;;;5043315;28;20465;-64
2023/11/11 04:48:43;;;;;;;18.63;17.60;;;;;;;;;;5059023;28;20369;-63
2023/11/11 04:51:09;;;;;;;18.42;17.42;;;;;;;;;;5058870;28;20131;-66
2023/11/11 04:53:35;;;;;;;19.13;18.13;;;;;;;;;;5063614;28;20040;-63
2023/11/11 04:56:01;;;;;;;20.30;19.10;;;;;;;;;;5065838;28;20110;-66
2023/11/11 04:58:28;;;;;;;18.77;17.77;;;;;;;;;;5063418;28;20031;-63
2023/11/11 05:00:53;;;;;;;20.10;19.00;;;;;;;;;;5061347;28;20059;-63
2023/11/11 05:03:19;;;;;;;20.15;19.05;;;;;;;;;;5061010;28;20506;-63
2023/11/11 05:05:45;;;;;;;20.40;19.30;;;;;;;;;;5062092;28;20772;-63
2023/11/11 05:08:11;;;;;;;18.80;17.80;;;;;;;;;;5054194;28;20163;-66
2023/11/11 05:10:36;;;;;;;19.38;18.27;;;;;;;;;;5057027;28;20412;-67
2023/11/11 05:13:08;;;;;;;20.00;18.90;;;;;;;;;;5063654;28;20094;-66
2023/11/11 05:15:37;;;;;;;20.70;19.60;;;;;;;;;;5060261;28;20033;-67
2023/11/11 05:18:03;;;;;;;20.48;19.38;;;;;;;;;;5064562;28;20284;-66
2023/11/11 05:20:28;;;;;;;20.20;19.10;;;;;;;;;;5055774;28;20108;-66
2023/11/11 05:22:53;;;;;;;20.25;19.15;;;;;;;;;;5056118;28;20039;-62
2023/11/11 05:25:19;;;;;;;20.85;19.73;;;;;;;;;;5061228;28;20158;-62
2023/11/11 05:27:45;;;;;;;20.98;19.88;;;;;;;;;;5062730;28;20098;-65
2023/11/11 05:30:11;;;;;;;20.85;19.75;;;;;;;;;;5061759;28;20131;-66
2023/11/11 05:32:37;;;;;;;19.85;18.75;;;;;;;;;;5061380;28;20357;-66
2023/11/11 05:35:03;;;;;;;19.88;18.77;;;;;;;;;;5059045;28;20041;-67
2023/11/11 05:37:29;;;;;;;21.25;20.05;;;;;;;;;;5056494;28;20463;-67
2023/11/11 05:39:55;;;;;;;20.33;19.15;;;;;;;;;;5060355;28;20047;-61
2023/11/11 05:42:20;;;;;;;21.75;20.48;;;;;;;;;;5061744;28;20025;-62
2023/11/11 05:44:45;;;;;;;20.00;18.90;;;;;;;;;;5060198;28;20047;-62
2023/11/11 05:47:11;;;;;;;19.13;18.13;;;;;;;;;;5060655;28;20037;-65
2023/11/11 05:49:36;;;;;;;19.98;18.88;;;;;;;;;;5065567;28;20029;-61
2023/11/11 05:52:05;;;;;;;18.70;17.70;;;;;;;;;;5059008;28;20040;-63
2023/11/11 05:54:31;;;;;;;20.60;19.50;;;;;;;;;;5060771;28;20168;-67
2023/11/11 05:56:57;;;;;;;18.80;17.80;;;;;;;;;;5057577;28;20379;-62
2023/11/11 05:59:22;;;;;;;20.63;19.42;;;;;;;;;;5061600;28;20032;-66
2023/11/11 06:01:48;;;;;;;20.20;19.10;;;;;;;;;;5061048;28;20669;-66
2023/11/11 06:04:14;;;;;;;21.20;19.63;;;;;;;;;;5060164;28;20531;-62
2023/11/11 06:06:43;;;;;;;19.88;18.77;;;;;;;;;;5058809;28;20461;-66
2023/11/11 06:09:15;;;;;;;19.77;18.67;;;;;;;;;;5057240;28;20155;-62
2023/11/11 06:11:45;;;;;;;19.77;18.67;;;;;;;;;;5062568;28;20170;-66
2023/11/11 06:14:16;;;;;;;18.90;17.90;;;;;;;;;;5059190;28;20515;-65
2023/11/11 06:16:44;;;;;;;20.05;18.95;;;;;;;;;;5061273;28;20033;-66
2023/11/11 06:19:10;;;;;;;18.67;17.58;;;;;;;;;;5059669;28;20531;-65
2023/11/11 06:21:36;;;;;;;19.05;17.95;;;;;;;;;;5059374;28;20132;-65
2023/11/11 06:24:02;;;;;;;19.27;18.20;;;;;;;;;;5058763;28;20059;-68
2023/11/11 06:26:31;;;;;;;20.17;18.98;;;;;;;;;;5063497;28;20036;-65
2023/11/11 06:28:59;;;;;;;19.70;18.60;;;;;;;;;;5061322;28;20036;-66
2023/11/11 06:31:24;;;;;;;20.58;19.25;;;;;;;;;;5063858;28;20086;-68
2023/11/11 06:33:50;;;;;;;20.15;19.05;;;;;;;;;;5066993;28;20071;-65
2023/11/11 06:36:16;;;;;;;18.63;17.63;;;;;;;;;;5068403;28;20180;-61
2023/11/11 06:38:42;;;;;;;19.70;18.60;;;;;;;;;;5065046;28;20040;-61
2023/11/11 06:41:08;;;;;;;20.25;19.15;;;;;;;;;;5062440;28;20037;-62
2023/11/11 06:43:34;;;;;;;19.50;18.40;;;;;;;;;;5064995;28;20033;-60
2023/11/11 06:46:00;;;;;;;20.88;19.77;;;;;;;;;;5061089;28;20428;-62
2023/11/11 06:48:26;;;;;;;20.73;19.52;;;;;;;;;;5064923;28;20020;-61
2023/11/11 06:50:55;;;;;;;19.10;18.10;;;;;;;;;;5067993;28;20172;-61
2023/11/11 06:53:20;;;;;;;19.65;18.55;;;;;;;;;;5064393;28;20067;-60
2023/11/11 06:55:48;;;;;;;18.92;17.73;;;;;;;;;;5062778;28;20351;-67
2023/11/11 06:58:13;;;;;;;18.25;17.25;;;;;;;;;;5069078;28;20471;-65
2023/11/11 07:00:39;;;;;;;19.70;18.60;;;;;;;;;;5061988;28;20111;-65
2023/11/11 07:03:04;;;;;;;19.35;18.25;;;;;;;;;;5063321;28;20044;-65
2023/11/11 07:05:29;;;;;;;19.13;18.08;;;;;;;;;;5061299;28;20214;-65
2023/11/11 07:07:55;;;;;;;17.90;16.90;;;;;;;;;;5062821;28;20065;-67
2023/11/11 07:10:23;;;;;;;18.60;17.60;;;;;;;;;;5062104;28;20388;-66
2023/11/11 07:12:49;;;;;;;17.75;16.75;;;;;;;;;;5059159;28;20438;-66
2023/11/11 07:15:15;;;;;;;18.70;17.67;;;;;;;;;;5062654;28;20056;-60
2023/11/11 07:17:44;;;;;;;19.13;18.13;;;;;;;;;;5059986;28;20040;-67
2023/11/11 07:20:17;;;;;;;18.45;17.45;;;;;;;;;;5062899;28;20044;-61
2023/11/11 07:22:42;;;;;;;19.05;18.05;;;;;;;;;;5063233;28;20036;-62
2023/11/11 07:25:09;;;;;;;19.15;18.05;;;;;;;;;;5061488;28;20300;-61
2023/11/11 07:27:35;;;;;;;17.92;16.92;;;;;;;;;;5062442;28;20031;-62
2023/11/11 07:30:04;;;;;;;17.20;16.20;;;;;;;;;;5062883;28;20108;-61
2023/11/11 07:32:30;;;;;;;18.95;17.95;;;;;;;;;;5059280;28;20039;-67
2023/11/11 07:34:55;;;;;;;18.58;17.58;;;;;;;;;;5065665;28;20032;-67
2023/11/11 07:37:21;;;;;;;19.25;18.15;;;;;;;;;;5057870;28;20113;-66
2023/11/11 07:39:47;;;;;;;18.50;17.50;;;;;;;;;;5058972;28;20124;-66
2023/11/11 07:42:12;;;;;;;19.45;18.35;;;;;;;;;;5061033;28;20089;-62
2023/11/11 07:44:38;;;;;;;19.13;18.13;;;;;;;;;;5059066;28;20410;-65
2023/11/11 07:47:06;;;;;;;18.67;17.58;;;;;;;;;;5063196;28;20087;-60
2023/11/11 07:49:33;;;;;;;20.35;19.25;;;;;;;;;;5061863;28;20040;-61
2023/11/11 07:51:58;;;;;;;19.67;18.48;;;;;;;;;;5060314;28;20066;-66
2023/11/11 07:54:24;;;;;;;19.58;18.48;;;;;;;;;;5062240;28;20057;-68
2023/11/11 07:56:50;;;;;;;18.75;17.75;;;;;;;;;;5064603;28;20446;-67
2023/11/11 07:59:17;;;;;;;18.67;17.67;;;;;;;;;;5055927;28;20024;-61
2023/11/11 08:01:43;;;;;;;21.65;20.45;;;;;;;;;;5063076;28;20488;-60
2023/11/11 08:04:09;;;;;;;19.55;18.45;;;;;;;;;;5059134;28;20031;-61
2023/11/11 08:06:34;;;;;;;19.80;18.70;;;;;;;;;;5062944;28;20125;-61
2023/11/11 08:08:59;;;;;;;19.50;18.40;;;;;;;;;;5060483;28;20060;-67
2023/11/11 08:11:25;;;;;;;20.20;19.10;;;;;;;;;;5062145;28;20032;-66
2023/11/11 08:13:51;;;;;;;21.25;20.15;;;;;;;;;;5061880;28;20035;-66
2023/11/11 08:16:18;;;;;;;21.58;20.38;;;;;;;;;;5059919;28;20391;-61
2023/11/11 08:18:44;;;;;;;23.67;22.40;;;;;;;;;;5059623;28;20441;-66
2023/11/11 08:21:09;;;;;;;20.80;19.70;;;;;;;;;;5059470;28;20082;-66
2023/11/11 08:23:35;;;;;;;21.73;20.52;;;;;;;;;;5062419;28;20114;-67
2023/11/11 08:26:00;;;;;;;20.23;19.13;;;;;;;;;;5063575;28;20029;-61
2023/11/11 08:28:26;;;;;;;21.50;20.30;;;;;;;;;;5061645;28;20116;-62
2023/11/11 08:30:51;;;;;;;21.38;20.27;;;;;;;;;;5065128;28;20048;-67
2023/11/11 08:33:18;;;;;;;20.70;19.50;;;;;;;;;;5057255;28;20434;-61
2023/11/11 08:35:44;;;;;;;21.02;19.92;;;;;;;;;;5062867;28;20658;-66
2023/11/11 08:38:10;;;;;;;20.95;19.85;;;;;;;;;;5059839;28;20549;-66
2023/11/11 08:40:35;;;;;;;21.13;19.92;;;;;;;;;;5061145;28;20043;-67
2023/11/11 08:43:01;;;;;;;18.58;17.52;;;;;;;;;;5062224;28;20147;-66
2023/11/11 08:45:27;;;;;;;17.50;16.50;;;;;;;;;;5060951;28;20526;-61
2023/11/11 08:47:53;;;;;;;19.00;18.00;;;;;;;;;;5059821;28;20021;-68
2023/11/11 08:50:19;;;;;;;18.45;17.35;;;;;;;;;;5058739;28;20462;-69
2023/11/11 08:52:45;;;;;;;18.88;17.88;;;;;;;;;;5059858;28;20051;-62
2023/11/11 08:55:10;;;;;;;17.08;16.08;;;;;;;;;;5057420;28;20048;-66
2023/11/11 08:57:36;;;;;;;16.80;15.90;;;;;;;;;;5061149;28;20104;-66
2023/11/11 09:00:07;;;;;;;18.33;17.20;;;;;;;;;;5061294;28;20049;-68
2023/11/11 09:02:34;;;;;;;;;;;;;;;;;;5060937;28;20039;-60
2023/11/11 09:04:59;;;;;;;16.55;15.65;;;;;;;;;;5062578;28;20313;-65
2023/11/11 09:07:25;;;;;;;17.83;16.83;;;;;;;;;;5058100;28;20035;-60
2023/11/11 09:09:51;;;;;;;18.10;17.08;;;;;;;;;;5059691;28;20043;-61
2023/11/11 09:12:16;;;;;;;17.95;16.95;;;;;;;;;;5058644;28;20448;-63
2023/11/11 09:14:42;;;;;;;17.65;16.65;;;;;;;;;;5059264;28;20105;-62
2023/11/11 09:17:07;;;;;;;18.23;17.17;;;;;;;;;;5059283;28;20380;-62
2023/11/11 09:19:32;;;;;;;17.08;16.15;;;;;;;;;;5056118;28;20478;-62
2023/11/11 09:21:59;;;;;;;17.65;16.65;;;;;;;;;;5062326;28;20132;-62
2023/11/11 09:24:24;;;;;;;17.73;16.73;;;;;;;;;;5055887;28;20024;-61
2023/11/11 09:26:52;;;;;;;17.63;16.63;;;;;;;;;;5057723;28;20095;-61
2023/11/11 09:29:18;;;;;;;18.05;16.90;;;;;;;;;;5057035;28;20421;-61
2023/11/11 09:31:43;;;;;;;17.38;16.38;;;;;;;;;;5059559;28;20070;-61
2023/11/11 09:34:11;;;;;;;16.95;16.05;;;;;;;;;;5058284;28;20052;-61
2023/11/11 09:36:39;;;;;;;16.70;15.80;;;;;;;;;;5059764;28;20126;-61
2023/11/11 09:39:07;;;;;;;19.65;18.58;;;;;;;;;;5059484;28;20040;-60
2023/11/11 09:41:32;;;;;;;17.45;16.45;;;;;;;;;;5058649;28;20161;-68
2023/11/11 09:43:58;;;;;;;17.77;16.77;;;;;;;;;;5059455;28;20032;-60
2023/11/11 09:46:29;;;;;;;18.05;17.00;;;;;;;;;;5056216;28;20025;-63
2023/11/11 09:48:55;;;;;;;16.55;15.65;;;;;;;;;;5059883;28;20040;-60
2023/11/11 09:51:21;;;;;;;17.42;16.42;;;;;;;;;;5057020;28;20037;-60
2023/11/11 09:53:47;;;;;;;18.17;17.17;;;;;;;;;;5064082;28;20346;-62
2023/11/11 09:56:14;;;;;;;19.05;17.95;;;;;;;;;;5058164;28;20742;-66
2023/11/11 09:58:40;;;;;;;17.80;16.80;;;;;;;;;;5067215;28;20440;-66
2023/11/11 10:01:05;;;;;;;18.52;17.52;;;;;;;;;;5064104;28;20687;-66
2023/11/11 10:03:31;;;;;;;17.13;16.23;;;;;;;;;;5064422;28;20037;-61
2023/11/11 10:05:57;;;;;;;17.35;16.35;;;;;;;;;;5061880;28;20032;-67
2023/11/11 10:08:24;;;;;;;17.38;16.40;;;;;;;;;;5060332;28;20039;-61
2023/11/11 10:10:52;;;;;;;17.60;16.60;;;;;;;;;;5063614;28;20064;-61
2023/11/11 10:13:18;;;;;;;16.20;15.30;;;;;;;;;;5065141;28;20039;-66
2023/11/11 10:15:44;;;;;;;16.70;15.77;;;;;;;;;;5063005;28;20433;-67
2023/11/11 10:18:11;;;;;;;18.08;17.08;;;;;;;;;;5066897;28;20072;-67
2023/11/11 10:20:36;;;;;;;17.15;16.05;;;;;;;;;;5063930;28;20044;-66
2023/11/11 10:23:02;;;;;;;17.50;16.45;;;;;;;;;;5062265;28;20040;-61
2023/11/11 10:25:27;;;;;;;18.08;17.08;;;;;;;;;;5061396;28;20083;-61
2023/11/11 10:27:54;;;;;;;17.27;16.17;;;;;;;;;;5064185;28;20563;-66
2023/11/11 10:30:24;;;;;;;16.00;15.10;;;;;;;;;;5061791;28;20048;-66
2023/11/11 10:32:51;;;;;;;16.75;15.85;;;;;;;;;;5063035;28;20114;-61
2023/11/11 10:35:21;;;;;;;17.23;15.82;;;;;;;;;;5063396;28;20383;-61
2023/11/11 10:37:48;;;;;;;16.60;15.70;;;;;;;;;;5062617;28;20064;-67
2023/11/11 10:40:16;;;;;;;16.73;15.82;;;;;;;;;;5063635;28;20426;-61
2023/11/11 10:42:47;;;;;;;15.63;14.70;;;;;;;;;;5061283;28;20444;-61
2023/11/11 10:45:15;;;;;;;16.65;15.75;;;;;;;;;;5050219;28;20423;-66
2023/11/11 10:47:43;;;;;;;17.25;16.25;;;;;;;;;;5061138;28;20351;-61
2023/11/11 10:50:09;;;;;;;17.63;16.63;;;;;;;;;;5063040;28;20228;-66
2023/11/11 10:52:37;;;;;;;19.25;18.15;;;;;;;;;;5060174;28;20032;-61
2023/11/11 10:55:06;;;;;;;18.73;17.73;;;;;;;;;;5062085;28;20032;-66
2023/11/11 10:57:32;;;;;;;19.77;18.58;;;;;;;;;;5061864;28;20020;-65
2023/11/11 10:59:59;;;;;;;19.75;18.65;;;;;;;;;;5059411;28;20029;-61
2023/11/11 11:02:25;;;;;;;18.98;17.98;;;;;;;;;;5064624;28;20066;-62
2023/11/11 11:04:56;;;;;;;20.27;19.17;;;;;;;;;;5062454;28;20040;-66
2023/11/11 11:07:25;;;;;;;18.98;17.88;;;;;;;;;;5061550;28;20044;-66
2023/11/11 11:10:01;;;;;;;19.15;18.08;;;;;;;;;;5059557;28;20510;-61
2023/11/11 11:12:40;;;;;;;21.90;20.63;;;;;;;;;;5058920;28;20044;-66
2023/11/11 11:15:07;;;;;;;18.05;17.05;;;;;;;;;;5060246;28;20270;-66
2023/11/11 11:17:38;;;;;;;17.73;16.73;;;;;;;;;;5060582;28;20249;-66
2023/11/11 11:20:20;;;;;;;18.65;17.58;;;;;;;;;;5060281;28;20028;-61
2023/11/11 11:22:47;;;;;;;18.25;17.25;;;;;;;;;;5065633;28;20313;-66
2023/11/11 11:25:33;;;;;;;17.92;16.92;;;;;;;;;;5063052;28;20032;-66
2023/11/11 11:28:11;;;;;;;18.08;16.98;;;;;;;;;;5067055;28;20040;-61
2023/11/11 11:30:42;;;;;;;17.90;16.90;;;;;;;;;;5058902;28;20549;-61
2023/11/11 11:33:10;;;;;;;17.95;16.95;;;;;;;;;;5063298;28;20036;-61
2023/11/11 11:35:39;;;;;;;18.98;17.98;;;;;;;;;;5062948;28;20028;-61
2023/11/11 11:38:06;;;;;;;20.75;19.65;;;;;;;;;;5060460;28;20037;-60
2023/11/11 11:40:35;;;;;;;18.83;17.83;;;;;;;;;;5064145;28;20880;-61
2023/11/11 11:43:09;;;;;;;20.10;19.00;;;;;;;;;;5058781;28;20127;-65
2023/11/11 11:45:37;;;;;;;18.50;17.50;;;;;;;;;;5065080;28;20393;-60
2023/11/11 11:48:03;;;;;;;19.88;18.77;;;;;;;;;;5064180;28;20916;-66
2023/11/11 11:50:28;;;;;;;23.83;19.45;;;;;;;;;;5060269;28;20089;-65
2023/11/11 11:52:54;;;;;;;22.35;21.15;;;;;;;;;;5060205;28;20502;-60
2023/11/11 11:55:19;;;;;;;22.20;21.00;;;;;;;;;;5065803;28;20102;-66
2023/11/11 11:57:55;;;;;;;21.73;20.52;;;;;;;;;;5058069;28;20481;-66
2023/11/11 12:00:21;;;;;;;22.25;21.05;;;;;;;;;;5064457;28;20047;-66
2023/11/11 12:02:47;;;;;;;21.27;20.08;;;;;;;;;;5059149;28;20032;-66
2023/11/11 12:05:12;;;;;;;21.10;19.98;;;;;;;;;;5061450;28;20060;-66
2023/11/11 12:07:39;;;;;;;22.13;20.92;;;;;;;;;;5058545;28;20044;-64
2023/11/11 12:10:09;;;;;;;22.65;21.45;;;;;;;;;;5062645;28;20040;-60
2023/11/11 12:12:34;;;;;;;22.75;21.55;;;;;;;;;;5059893;28;20235;-66
2023/11/11 12:15:00;;;;;;;21.58;20.40;;;;;;;;;;5063046;28;20034;-68
2023/11/11 12:17:26;;;;;;;23.38;22.10;;;;;;;;;;5060377;28;20124;-66
2023/11/11 12:19:54;;;;;;;21.65;20.48;;;;;;;;;;5060590;28;20477;-62
2023/11/11 12:22:22;;;;;;;23.75;22.35;;;;;;;;;;5061736;28;20067;-67
2023/11/11 12:24:48;;;;;;;22.33;21.02;;;;;;;;;;5060190;28;20047;-67
2023/11/11 12:27:15;;;;;;;22.33;21.02;;;;;;;;;;5062868;28;20028;-67
2023/11/11 12:29:41;;;;;;;22.10;20.80;;;;;;;;;;5057130;28;20600;-62
2023/11/11 12:32:13;;;;;;;20.88;19.73;;;;;;;;;;5062670;28;20040;-67
2023/11/11 12:34:39;;;;;;;22.50;21.30;;;;;;;;;;5062511;28;20147;-67
2023/11/11 12:37:04;;;;;;;20.25;19.15;;;;;;;;;;5059312;28;20781;-67
2023/11/11 12:39:30;;;;;;;18.95;17.92;;;;;;;;;;5060519;28;20115;-62
2023/11/11 12:41:56;;;;;;;21.38;20.23;;;;;;;;;;5061101;28;20048;-62
2023/11/11 12:44:23;;;;;;;19.98;18.88;;;;;;;;;;5062526;28;20123;-61
2023/11/11 12:46:49;;;;;;;20.20;19.00;;;;;;;;;;5049694;28;20404;-62
2023/11/11 12:49:17;;;;;;;20.17;19.00;;;;;;;;;;5060909;28;20024;-62
2023/11/11 12:51:44;;;;;;;18.95;17.92;;;;;;;;;;5057854;28;20024;-61
2023/11/11 12:54:11;;;;;;;20.77;19.67;;;;;;;;;;5058043;28;20063;-61
2023/11/11 12:56:47;;;;;;;18.15;17.15;;;;;;;;;;5060164;28;20028;-61
2023/11/11 12:59:13;;;;;;;19.02;17.95;;;;;;;;;;5061631;28;20042;-62
2023/11/11 13:01:39;;;;;;;19.20;18.15;;;;;;;;;;5058383;28;20425;-61
2023/11/11 13:04:07;;;;;;;17.50;16.50;;;;;;;;;;5063342;28;20037;-62
2023/11/11 13:06:35;;;;;;;18.35;17.35;;;;;;;;;;5059650;28;20044;-62
2023/11/11 13:09:10;;;;;;;18.58;17.52;;;;;;;;;;5057730;28;20056;-67
2023/11/11 13:11:36;;;;;;;18.60;17.60;;;;;;;;;;5062058;28;20065;-67
2023/11/11 13:14:05;;;;;;;19.23;18.17;;;;;;;;;;5060424;28;20071;-68
2023/11/11 13:16:31;;;;;;;18.83;17.75;;;;;;;;;;5058689;28;20091;-67
2023/11/11 13:18:57;;;;;;;20.13;19.02;;;;;;;;;;5057776;28;20064;-67
2023/11/11 13:21:28;;;;;;;21.52;20.38;;;;;;;;;;5045877;28;20028;-61
2023/11/11 13:23:58;;;;;;;20.33;19.23;;;;;;;;;;5059754;28;20032;-61
2023/11/11 13:26:25;;;;;;;21.40;20.20;;;;;;;;;;5059663;28;20041;-61
2023/11/11 13:28:52;;;;;;;22.13;20.88;;;;;;;;;;5064358;28;20039;-61
2023/11/11 13:31:24;;;;;;;19.83;18.73;;;;;;;;;;5062567;28;20178;-67
2023/11/11 13:33:51;;;;;;;21.45;20.23;;;;;;;;;;5057928;28;20390;-60
2023/11/11 13:36:27;;;;;;;22.58;21.33;;;;;;;;;;5059176;28;20050;-67
2023/11/11 13:38:53;;;;;;;19.83;18.75;;;;;;;;;;5060157;28;20094;-65
2023/11/11 13:41:19;;;;;;;21.38;20.23;;;;;;;;;;5061902;28;20125;-60
2023/11/11 13:43:51;;;;;;;20.77;19.67;;;;;;;;;;5060434;28;20174;-65
2023/11/11 13:46:22;;;;;;;20.58;19.48;;;;;;;;;;5060855;28;20036;-67
2023/11/11 13:48:47;;;;;;;20.30;19.20;;;;;;;;;;5061531;28;20043;-67
2023/11/11 13:51:14;;;;;;;22.33;21.13;;;;;;;;;;5057422;28;20115;-67
2023/11/11 13:53:40;;;;;;;20.42;19.33;;;;;;;;;;5061007;28;20032;-67
2023/11/11 13:56:08;;;;;;;22.50;21.30;;;;;;;;;;5059215;28;20037;-60
2023/11/11 13:58:34;;;;;;;22.58;21.27;;;;;;;;;;5060094;28;20079;-61
2023/11/11 14:01:00;;;;;;;24.88;23.58;;;;;;;;;;5059952;28;20043;-66
2023/11/11 14:03:26;;;;;;;24.30;23.00;;;;;;;;;;5061047;28;20530;-61
2023/11/11 14:05:52;;;;;;;24.65;23.08;;;;;;;;;;5056503;28;20068;-68
2023/11/11 14:08:17;;;;;;;23.38;22.15;;;;;;;;;;5060933;28;20074;-63
2023/11/11 14:10:44;;;;;;;24.80;23.50;;;;;;;;;;5062134;28;20025;-64
2023/11/11 14:13:09;;;;;;;23.08;21.88;;;;;;;;;;5032125;28;20051;-68
2023/11/11 14:15:45;;;;;;;20.98;19.88;;;;;;;;;;5057672;28;20352;-66